sensor_id;sensor_type;location;lat;lon;timestamp;pressure;altitude;pressure_sealevel;temperature
75658;BMP280;64255;49.892;17.884;2023-06-04T05:02:32;99141.78;;;9.99
75658;BMP280;64255;49.892;17.884;2023-06-04T05:05:19;99147.78;;;10.31
75658;BMP280;64255;49.892;17.884;2023-06-04T05:08:05;99142.56;;;10.65
75658;BMP280;64255;49.892;17.884;2023-06-04T05:10:52;99139.31;;;10.42
75658;BMP280;64255;49.892;17.884;2023-06-04T05:13:38;99156.84;;;10.43
75658;BMP280;64255;49.892;17.884;2023-06-04T05:16:25;99151.94;;;10.51
75658;BMP280;64255;49.892;17.884;2023-06-04T05:19:11;99145.13;;;11.30
75658;BMP280;64255;49.892;17.884;2023-06-04T05:21:59;99148.72;;;11.27
75658;BMP280;64255;49.892;17.884;2023-06-04T05:24:45;99149.06;;;11.53
75658;BMP280;64255;49.892;17.884;2023-06-04T05:27:32;99140.94;;;12.50
75658;BMP280;64255;49.892;17.884;2023-06-04T05:30:18;99146.59;;;12.97
75658;BMP280;64255;49.892;17.884;2023-06-04T05:33:05;99148.50;;;13.41
75658;BMP280;64255;49.892;17.884;2023-06-04T05:35:51;99143.59;;;13.60
75658;BMP280;64255;49.892;17.884;2023-06-04T05:38:38;99158.69;;;14.40
75658;BMP280;64255;49.892;17.884;2023-06-04T05:41:24;99149.34;;;14.35
75658;BMP280;64255;49.892;17.884;2023-06-04T05:44:11;99156.41;;;14.85
75658;BMP280;64255;49.892;17.884;2023-06-04T05:46:57;99162.13;;;14.67
75658;BMP280;64255;49.892;17.884;2023-06-04T05:49:44;99163.38;;;15.03
75658;BMP280;64255;49.892;17.884;2023-06-04T05:52:32;99167.03;;;15.38
75658;BMP280;64255;49.892;17.884;2023-06-04T05:55:19;99175.91;;;15.44
75658;BMP280;64255;49.892;17.884;2023-06-04T05:58:06;99183.69;;;15.31
75658;BMP280;64255;49.892;17.884;2023-06-04T06:00:52;99177.44;;;15.13
75658;BMP280;64255;49.892;17.884;2023-06-04T06:03:39;99189.50;;;15.18
75658;BMP280;64255;49.892;17.884;2023-06-04T06:06:25;99184.66;;;14.96
75658;BMP280;64255;49.892;17.884;2023-06-04T06:09:12;99190.34;;;15.03
75658;BMP280;64255;49.892;17.884;2023-06-04T06:11:58;99186.28;;;15.57
75658;BMP280;64255;49.892;17.884;2023-06-04T06:14:45;99191.53;;;14.97
75658;BMP280;64255;49.892;17.884;2023-06-04T06:17:31;99194.53;;;15.91
75658;BMP280;64255;49.892;17.884;2023-06-04T06:20:18;99191.19;;;15.53
75658;BMP280;64255;49.892;17.884;2023-06-04T06:23:08;99187.97;;;15.49
75658;BMP280;64255;49.892;17.884;2023-06-04T06:25:55;99191.78;;;15.74
75658;BMP280;64255;49.892;17.884;2023-06-04T06:28:42;99186.81;;;16.72
75658;BMP280;64255;49.892;17.884;2023-06-04T06:31:28;99181.13;;;16.25
75658;BMP280;64255;49.892;17.884;2023-06-04T06:34:15;99172.56;;;17.00
75658;BMP280;64255;49.892;17.884;2023-06-04T06:37:01;99180.84;;;17.30
75658;BMP280;64255;49.892;17.884;2023-06-04T06:39:48;99177.91;;;17.23
75658;BMP280;64255;49.892;17.884;2023-06-04T06:42:34;99176.66;;;17.35
75658;BMP280;64255;49.892;17.884;2023-06-04T06:45:21;99177.50;;;17.66
75658;BMP280;64255;49.892;17.884;2023-06-04T06:48:07;99183.84;;;17.85
75658;BMP280;64255;49.892;17.884;2023-06-04T06:50:54;99181.50;;;18.07
75658;BMP280;64255;49.892;17.884;2023-06-04T06:53:42;99186.81;;;17.88
75658;BMP280;64255;49.892;17.884;2023-06-04T06:56:28;99182.28;;;18.37
75658;BMP280;64255;49.892;17.884;2023-06-04T06:59:15;99190.03;;;17.75
75658;BMP280;64255;49.892;17.884;2023-06-04T07:02:01;99188.16;;;18.42
75658;BMP280;64255;49.892;17.884;2023-06-04T07:04:48;99190.28;;;18.18
75658;BMP280;64255;49.892;17.884;2023-06-04T07:07:35;99190.84;;;18.47
75658;BMP280;64255;49.892;17.884;2023-06-04T07:10:21;99187.03;;;18.86
75658;BMP280;64255;49.892;17.884;2023-06-04T07:13:07;99187.72;;;18.68
75658;BMP280;64255;49.892;17.884;2023-06-04T07:15:54;99186.25;;;18.36
75658;BMP280;64255;49.892;17.884;2023-06-04T07:18:41;99193.38;;;18.95
75658;BMP280;64255;49.892;17.884;2023-06-04T07:21:27;99178.50;;;18.77
75658;BMP280;64255;49.892;17.884;2023-06-04T07:24:14;99178.69;;;18.84
75658;BMP280;64255;49.892;17.884;2023-06-04T07:27:00;99185.38;;;19.08
75658;BMP280;64255;49.892;17.884;2023-06-04T07:29:47;99190.44;;;18.92
75658;BMP280;64255;49.892;17.884;2023-06-04T07:32:33;99193.47;;;19.33
75658;BMP280;64255;49.892;17.884;2023-06-04T07:35:20;99201.50;;;19.44
75658;BMP280;64255;49.892;17.884;2023-06-04T07:38:06;99195.41;;;18.88
75658;BMP280;64255;49.892;17.884;2023-06-04T07:40:53;99189.84;;;18.45
75658;BMP280;64255;49.892;17.884;2023-06-04T07:43:39;99195.06;;;18.73
75658;BMP280;64255;49.892;17.884;2023-06-04T07:46:26;99195.59;;;18.35
75658;BMP280;64255;49.892;17.884;2023-06-04T07:49:13;99198.41;;;19.09
75658;BMP280;64255;49.892;17.884;2023-06-04T07:51:59;99195.19;;;19.74
75658;BMP280;64255;49.892;17.884;2023-06-04T07:54:46;99207.22;;;19.97
75658;BMP280;64255;49.892;17.884;2023-06-04T07:57:32;99194.72;;;19.32
75658;BMP280;64255;49.892;17.884;2023-06-04T08:00:19;99193.03;;;20.05
75658;BMP280;64255;49.892;17.884;2023-06-04T08:03:06;99185.28;;;19.57
75658;BMP280;64255;49.892;17.884;2023-06-04T08:05:52;99186.88;;;20.04
75658;BMP280;64255;49.892;17.884;2023-06-04T08:08:43;99189.63;;;20.50
75658;BMP280;64255;49.892;17.884;2023-06-04T08:11:29;99193.50;;;19.71
75658;BMP280;64255;49.892;17.884;2023-06-04T08:14:16;99187.91;;;20.01
75658;BMP280;64255;49.892;17.884;2023-06-04T08:17:02;99189.69;;;19.98
75658;BMP280;64255;49.892;17.884;2023-06-04T08:19:49;99198.53;;;19.86
75658;BMP280;64255;49.892;17.884;2023-06-04T08:22:35;99196.81;;;19.83
75658;BMP280;64255;49.892;17.884;2023-06-04T08:25:22;99189.03;;;20.97
75658;BMP280;64255;49.892;17.884;2023-06-04T08:28:08;99193.44;;;20.28
75658;BMP280;64255;49.892;17.884;2023-06-04T08:30:55;99191.91;;;20.46
75658;BMP280;64255;49.892;17.884;2023-06-04T08:33:41;99193.34;;;20.01
75658;BMP280;64255;49.892;17.884;2023-06-04T08:36:28;99193.53;;;20.68
75658;BMP280;64255;49.892;17.884;2023-06-04T08:39:14;99209.03;;;20.41
75658;BMP280;64255;49.892;17.884;2023-06-04T08:42:05;99208.72;;;20.31
75658;BMP280;64255;49.892;17.884;2023-06-04T08:44:52;99216.00;;;19.71
75658;BMP280;64255;49.892;17.884;2023-06-04T08:47:49;99197.38;;;19.94
75658;BMP280;64255;49.892;17.884;2023-06-04T08:50:36;99210.28;;;19.50
75658;BMP280;64255;49.892;17.884;2023-06-04T08:53:25;99215.22;;;19.71
75658;BMP280;64255;49.892;17.884;2023-06-04T08:56:12;99210.13;;;18.99
75658;BMP280;64255;49.892;17.884;2023-06-04T08:59:05;99194.88;;;19.15
75658;BMP280;64255;49.892;17.884;2023-06-04T09:01:55;99204.91;;;19.01
75658;BMP280;64255;49.892;17.884;2023-06-04T09:04:44;99199.19;;;19.29
75658;BMP280;64255;49.892;17.884;2023-06-04T09:07:35;99197.72;;;19.03
75658;BMP280;64255;49.892;17.884;2023-06-04T09:10:24;99202.97;;;19.83
75658;BMP280;64255;49.892;17.884;2023-06-04T09:13:11;99202.69;;;19.49
75658;BMP280;64255;49.892;17.884;2023-06-04T09:16:04;99202.75;;;18.69
75658;BMP280;64255;49.892;17.884;2023-06-04T09:18:51;99200.03;;;19.43
75658;BMP280;64255;49.892;17.884;2023-06-04T09:21:51;99198.19;;;19.51
75658;BMP280;64255;49.892;17.884;2023-06-04T09:24:47;99198.34;;;19.15
75658;BMP280;64255;49.892;17.884;2023-06-04T09:27:40;99193.41;;;19.38
75658;BMP280;64255;49.892;17.884;2023-06-04T09:30:27;99199.16;;;19.54
75658;BMP280;64255;49.892;17.884;2023-06-04T09:33:13;99194.09;;;19.44
75658;BMP280;64255;49.892;17.884;2023-06-04T09:36:00;99187.31;;;19.32
75658;BMP280;64255;49.892;17.884;2023-06-04T09:38:46;99183.88;;;19.70
75658;BMP280;64255;49.892;17.884;2023-06-04T09:41:33;99187.41;;;19.45
75658;BMP280;64255;49.892;17.884;2023-06-04T09:44:20;99179.75;;;19.82
75658;BMP280;64255;49.892;17.884;2023-06-04T09:47:06;99190.16;;;19.21
75658;BMP280;64255;49.892;17.884;2023-06-04T09:49:53;99186.00;;;19.39
75658;BMP280;64255;49.892;17.884;2023-06-04T09:52:39;99181.16;;;19.89
75658;BMP280;64255;49.892;17.884;2023-06-04T09:55:26;99181.03;;;19.81
75658;BMP280;64255;49.892;17.884;2023-06-04T09:58:14;99179.13;;;19.57
75658;BMP280;64255;49.892;17.884;2023-06-04T10:01:04;99180.84;;;19.16
75658;BMP280;64255;49.892;17.884;2023-06-04T10:03:52;99176.84;;;19.80
75658;BMP280;64255;49.892;17.884;2023-06-04T10:06:40;99182.78;;;19.59
75658;BMP280;64255;49.892;17.884;2023-06-04T10:09:28;99186.72;;;19.39
75658;BMP280;64255;49.892;17.884;2023-06-04T10:12:16;99185.09;;;20.07
75658;BMP280;64255;49.892;17.884;2023-06-04T10:15:13;99186.66;;;19.45
75658;BMP280;64255;49.892;17.884;2023-06-04T10:18:02;99192.53;;;20.39
75658;BMP280;64255;49.892;17.884;2023-06-04T10:20:49;99188.75;;;19.77
75658;BMP280;64255;49.892;17.884;2023-06-04T10:23:37;99186.22;;;19.41
75658;BMP280;64255;49.892;17.884;2023-06-04T10:26:25;99183.47;;;19.66
75658;BMP280;64255;49.892;17.884;2023-06-04T10:29:13;99180.31;;;20.13
75658;BMP280;64255;49.892;17.884;2023-06-04T10:32:00;99180.66;;;20.68
75658;BMP280;64255;49.892;17.884;2023-06-04T10:34:47;99182.91;;;20.38
75658;BMP280;64255;49.892;17.884;2023-06-04T10:37:33;99183.66;;;20.51
75658;BMP280;64255;49.892;17.884;2023-06-04T10:40:33;99184.69;;;20.48
75658;BMP280;64255;49.892;17.884;2023-06-04T10:43:20;99177.28;;;20.49
75658;BMP280;64255;49.892;17.884;2023-06-04T10:46:19;99175.63;;;20.73
75658;BMP280;64255;49.892;17.884;2023-06-04T10:49:07;99171.84;;;20.89
75658;BMP280;64255;49.892;17.884;2023-06-04T10:51:55;99178.97;;;20.92
75658;BMP280;64255;49.892;17.884;2023-06-04T10:54:44;99174.22;;;20.52
75658;BMP280;64255;49.892;17.884;2023-06-04T10:57:31;99175.28;;;20.49
75658;BMP280;64255;49.892;17.884;2023-06-04T11:00:18;99169.28;;;20.24
75658;BMP280;64255;49.892;17.884;2023-06-04T11:03:10;99167.56;;;20.54
75658;BMP280;64255;49.892;17.884;2023-06-04T11:05:56;99157.81;;;20.58
75658;BMP280;64255;49.892;17.884;2023-06-04T11:08:44;99159.00;;;20.90
75658;BMP280;64255;49.892;17.884;2023-06-04T11:11:30;99164.69;;;20.32
75658;BMP280;64255;49.892;17.884;2023-06-04T11:14:17;99157.31;;;20.86
75658;BMP280;64255;49.892;17.884;2023-06-04T11:17:12;99154.78;;;20.62
75658;BMP280;64255;49.892;17.884;2023-06-04T11:19:58;99148.38;;;21.26
75658;BMP280;64255;49.892;17.884;2023-06-04T11:23:14;99160.00;;;21.27
75658;BMP280;64255;49.892;17.884;2023-06-04T11:26:01;99146.38;;;21.27
75658;BMP280;64255;49.892;17.884;2023-06-04T11:28:51;99150.59;;;21.01
75658;BMP280;64255;49.892;17.884;2023-06-04T11:31:46;99154.25;;;21.65
75658;BMP280;64255;49.892;17.884;2023-06-04T11:34:33;99147.94;;;21.35
75658;BMP280;64255;49.892;17.884;2023-06-04T11:37:19;99154.38;;;20.71
75658;BMP280;64255;49.892;17.884;2023-06-04T11:40:17;99158.88;;;21.09
75658;BMP280;64255;49.892;17.884;2023-06-04T11:43:03;99160.00;;;21.27
75658;BMP280;64255;49.892;17.884;2023-06-04T11:45:51;99160.97;;;21.16
75658;BMP280;64255;49.892;17.884;2023-06-04T11:48:38;99148.81;;;21.03
75658;BMP280;64255;49.892;17.884;2023-06-04T11:51:24;99143.09;;;20.94
75658;BMP280;64255;49.892;17.884;2023-06-04T11:54:13;99146.47;;;21.34
75658;BMP280;64255;49.892;17.884;2023-06-04T11:57:00;99136.47;;;21.50
75658;BMP280;64255;49.892;17.884;2023-06-04T11:59:47;99143.75;;;21.34
75658;BMP280;64255;49.892;17.884;2023-06-04T12:02:33;99134.91;;;21.41
75658;BMP280;64255;49.892;17.884;2023-06-04T12:05:23;99136.66;;;21.04
75658;BMP280;64255;49.892;17.884;2023-06-04T12:08:10;99145.38;;;21.03
75658;BMP280;64255;49.892;17.884;2023-06-04T12:10:57;99145.88;;;20.88
75658;BMP280;64255;49.892;17.884;2023-06-04T12:13:43;99143.56;;;21.19
75658;BMP280;64255;49.892;17.884;2023-06-04T12:16:30;99137.13;;;21.30
75658;BMP280;64255;49.892;17.884;2023-06-04T12:19:16;99134.38;;;21.43
75658;BMP280;64255;49.892;17.884;2023-06-04T12:22:05;99143.56;;;21.19
75658;BMP280;64255;49.892;17.884;2023-06-04T12:24:54;99139.34;;;21.45
75658;BMP280;64255;49.892;17.884;2023-06-04T12:27:47;99146.59;;;21.29
75658;BMP280;64255;49.892;17.884;2023-06-04T12:30:40;99134.34;;;21.35
75658;BMP280;64255;49.892;17.884;2023-06-04T12:33:27;99145.88;;;21.01
75658;BMP280;64255;49.892;17.884;2023-06-04T12:36:13;99135.59;;;21.21
75658;BMP280;64255;49.892;17.884;2023-06-04T12:39:02;99130.91;;;21.56
75658;BMP280;64255;49.892;17.884;2023-06-04T12:41:49;99128.06;;;21.27
75658;BMP280;64255;49.892;17.884;2023-06-04T12:44:40;99138.56;;;21.10
75658;BMP280;64255;49.892;17.884;2023-06-04T12:47:27;99133.25;;;21.38
75658;BMP280;64255;49.892;17.884;2023-06-04T12:50:13;99133.59;;;21.69
75658;BMP280;64255;49.892;17.884;2023-06-04T12:53:00;99136.41;;;21.29
75658;BMP280;64255;49.892;17.884;2023-06-04T12:55:46;99132.88;;;21.21
75658;BMP280;64255;49.892;17.884;2023-06-04T12:58:33;99128.81;;;21.14
75658;BMP280;64255;49.892;17.884;2023-06-04T13:01:19;99128.91;;;21.22
75658;BMP280;64255;49.892;17.884;2023-06-04T13:04:06;99130.50;;;21.52
75658;BMP280;64255;49.892;17.884;2023-06-04T13:06:53;99125.00;;;21.65
75658;BMP280;64255;49.892;17.884;2023-06-04T13:09:39;99121.88;;;21.82
75658;BMP280;64255;49.892;17.884;2023-06-04T13:12:26;99118.47;;;22.10
75658;BMP280;64255;49.892;17.884;2023-06-04T13:15:12;99119.91;;;22.33
75658;BMP280;64255;49.892;17.884;2023-06-04T13:17:59;99118.88;;;21.93
75658;BMP280;64255;49.892;17.884;2023-06-04T13:20:45;99117.47;;;22.00
75658;BMP280;64255;49.892;17.884;2023-06-04T13:23:32;99124.81;;;22.34
75658;BMP280;64255;49.892;17.884;2023-06-04T13:26:19;99125.59;;;22.13
75658;BMP280;64255;49.892;17.884;2023-06-04T13:29:05;99119.06;;;21.74
75658;BMP280;64255;49.892;17.884;2023-06-04T13:31:52;99122.69;;;21.69
75658;BMP280;64255;49.892;17.884;2023-06-04T13:34:38;99120.59;;;21.41
75658;BMP280;64255;49.892;17.884;2023-06-04T13:37:24;99122.13;;;21.15
75658;BMP280;64255;49.892;17.884;2023-06-04T13:40:12;99115.13;;;21.62
75658;BMP280;64255;49.892;17.884;2023-06-04T13:42:58;99126.63;;;21.82
75658;BMP280;64255;49.892;17.884;2023-06-04T13:45:45;99125.19;;;21.67
75658;BMP280;64255;49.892;17.884;2023-06-04T13:48:31;99114.13;;;22.15
75658;BMP280;64255;49.892;17.884;2023-06-04T13:51:18;99118.25;;;22.08
75658;BMP280;64255;49.892;17.884;2023-06-04T13:54:04;99116.22;;;22.22
75658;BMP280;64255;49.892;17.884;2023-06-04T13:56:51;99110.19;;;22.24
75658;BMP280;64255;49.892;17.884;2023-06-04T13:59:40;99106.69;;;22.16
75658;BMP280;64255;49.892;17.884;2023-06-04T14:02:27;99113.97;;;21.92
75658;BMP280;64255;49.892;17.884;2023-06-04T14:05:14;99111.22;;;22.42
75658;BMP280;64255;49.892;17.884;2023-06-04T14:08:01;99108.50;;;21.71
75658;BMP280;64255;49.892;17.884;2023-06-04T14:10:47;99106.38;;;21.98
75658;BMP280;64255;49.892;17.884;2023-06-04T14:13:34;99103.06;;;22.21
75658;BMP280;64255;49.892;17.884;2023-06-04T14:16:20;99101.53;;;22.33
75658;BMP280;64255;49.892;17.884;2023-06-04T14:19:07;99106.44;;;22.06
75658;BMP280;64255;49.892;17.884;2023-06-04T14:21:53;99101.09;;;21.71
75658;BMP280;64255;49.892;17.884;2023-06-04T14:24:40;99103.41;;;21.88
75658;BMP280;64255;49.892;17.884;2023-06-04T14:27:27;99099.16;;;21.80
75658;BMP280;64255;49.892;17.884;2023-06-04T14:30:14;99096.13;;;21.91
75658;BMP280;64255;49.892;17.884;2023-06-04T14:33:00;99090.50;;;21.47
75658;BMP280;64255;49.892;17.884;2023-06-04T14:35:47;99096.97;;;21.57
75658;BMP280;64255;49.892;17.884;2023-06-04T14:38:34;99086.59;;;21.42
75658;BMP280;64255;49.892;17.884;2023-06-04T14:41:20;99088.16;;;21.51
75658;BMP280;64255;49.892;17.884;2023-06-04T14:44:06;99079.88;;;21.77
75658;BMP280;64255;49.892;17.884;2023-06-04T14:46:53;99089.44;;;21.71
75658;BMP280;64255;49.892;17.884;2023-06-04T14:49:39;99088.06;;;21.77
75658;BMP280;64255;49.892;17.884;2023-06-04T14:52:26;99092.50;;;21.88
75658;BMP280;64255;49.892;17.884;2023-06-04T14:55:12;99081.41;;;21.65
75658;BMP280;64255;49.892;17.884;2023-06-04T14:57:59;99081.06;;;21.90
75658;BMP280;64255;49.892;17.884;2023-06-04T15:00:46;99083.38;;;21.86
75658;BMP280;64255;49.892;17.884;2023-06-04T15:03:32;99084.19;;;21.94
75658;BMP280;64255;49.892;17.884;2023-06-04T15:06:19;99087.91;;;21.83
75658;BMP280;64255;49.892;17.884;2023-06-04T15:09:06;99084.50;;;21.90
75658;BMP280;64255;49.892;17.884;2023-06-04T15:11:52;99081.41;;;22.15
75658;BMP280;64255;49.892;17.884;2023-06-04T15:14:39;99083.44;;;21.93
75658;BMP280;64255;49.892;17.884;2023-06-04T15:17:25;99098.72;;;21.75
75658;BMP280;64255;49.892;17.884;2023-06-04T15:20:12;99088.72;;;21.70
75658;BMP280;64255;49.892;17.884;2023-06-04T15:22:58;99087.03;;;21.67
75658;BMP280;64255;49.892;17.884;2023-06-04T15:25:45;99079.78;;;21.49
75658;BMP280;64255;49.892;17.884;2023-06-04T15:28:31;99086.25;;;21.59
75658;BMP280;64255;49.892;17.884;2023-06-04T15:31:18;99085.38;;;21.64
75658;BMP280;64255;49.892;17.884;2023-06-04T15:34:04;99088.84;;;21.86
75658;BMP280;64255;49.892;17.884;2023-06-04T15:36:51;99082.25;;;21.60
75658;BMP280;64255;49.892;17.884;2023-06-04T15:39:37;99083.06;;;21.47
75658;BMP280;64255;49.892;17.884;2023-06-04T15:42:24;99084.44;;;21.40
75658;BMP280;64255;49.892;17.884;2023-06-04T15:45:10;99083.19;;;21.63
75658;BMP280;64255;49.892;17.884;2023-06-04T15:47:57;99077.59;;;21.47
75658;BMP280;64255;49.892;17.884;2023-06-04T15:50:43;99078.44;;;21.42
75658;BMP280;64255;49.892;17.884;2023-06-04T15:53:30;99077.63;;;21.34
75658;BMP280;64255;49.892;17.884;2023-06-04T15:56:16;99087.22;;;21.14
75658;BMP280;64255;49.892;17.884;2023-06-04T15:59:03;99074.44;;;21.22
75658;BMP280;64255;49.892;17.884;2023-06-04T16:01:51;99086.38;;;21.32
75658;BMP280;64255;49.892;17.884;2023-06-04T16:04:37;99075.00;;;21.41
75658;BMP280;64255;49.892;17.884;2023-06-04T16:07:24;99077.00;;;21.62
75658;BMP280;64255;49.892;17.884;2023-06-04T16:10:10;99074.34;;;21.49
75658;BMP280;64255;49.892;17.884;2023-06-04T16:12:57;99076.91;;;21.33
75658;BMP280;64255;49.892;17.884;2023-06-04T16:15:43;99089.31;;;21.21
75658;BMP280;64255;49.892;17.884;2023-06-04T16:18:30;99080.53;;;21.15
75658;BMP280;64255;49.892;17.884;2023-06-04T16:21:17;99086.19;;;21.17
75658;BMP280;64255;49.892;17.884;2023-06-04T16:24:03;99077.84;;;21.01
75658;BMP280;64255;49.892;17.884;2023-06-04T16:26:50;99083.09;;;20.99
75658;BMP280;64255;49.892;17.884;2023-06-04T16:29:37;99092.44;;;20.91
75658;BMP280;64255;49.892;17.884;2023-06-04T16:32:23;99093.03;;;20.83
75658;BMP280;64255;49.892;17.884;2023-06-04T16:35:10;99094.03;;;20.73
75658;BMP280;64255;49.892;17.884;2023-06-04T16:37:57;99087.09;;;20.72
75658;BMP280;64255;49.892;17.884;2023-06-04T16:40:44;99088.56;;;20.73
75658;BMP280;64255;49.892;17.884;2023-06-04T16:43:30;99092.53;;;20.72
75658;BMP280;64255;49.892;17.884;2023-06-04T16:46:17;99099.78;;;20.69
75658;BMP280;64255;49.892;17.884;2023-06-04T16:49:03;99087.44;;;20.68
75658;BMP280;64255;49.892;17.884;2023-06-04T16:51:50;99096.84;;;20.67
75658;BMP280;64255;49.892;17.884;2023-06-04T16:54:36;99093.59;;;20.55
75658;BMP280;64255;49.892;17.884;2023-06-04T16:57:23;99090.84;;;20.42
